sensor_id;sensor_type;location;lat;lon;timestamp;temperature;humidity
76838;DHT22;65797;47.352;8.164;2022-12-05T00:00:48;3.00;99.90
76838;DHT22;65797;47.352;8.164;2022-12-05T00:03:14;3.00;99.90
76838;DHT22;65797;47.352;8.164;2022-12-05T00:05:40;3.00;99.90
76838;DHT22;65797;47.352;8.164;2022-12-05T00:08:06;3.00;99.90
76838;DHT22;65797;47.352;8.164;2022-12-05T00:10:34;3.00;99.90
76838;DHT22;65797;47.352;8.164;2022-12-05T00:13:00;3.00;99.90
76838;DHT22;65797;47.352;8.164;2022-12-05T00:15:25;3.00;99.90
76838;DHT22;65797;47.352;8.164;2022-12-05T00:17:51;3.00;99.90
76838;DHT22;65797;47.352;8.164;2022-12-05T00:20:17;3.10;99.90
76838;DHT22;65797;47.352;8.164;2022-12-05T00:22:43;3.10;99.90
76838;DHT22;65797;47.352;8.164;2022-12-05T00:25:08;3.00;99.90
76838;DHT22;65797;47.352;8.164;2022-12-05T00:27:34;3.10;99.90
76838;DHT22;65797;47.352;8.164;2022-12-05T00:30:01;3.10;99.90
76838;DHT22;65797;47.352;8.164;2022-12-05T00:32:29;3.10;99.90
76838;DHT22;65797;47.352;8.164;2022-12-05T00:34:55;3.10;99.90
76838;DHT22;65797;47.352;8.164;2022-12-05T00:37:21;3.10;99.90
76838;DHT22;65797;47.352;8.164;2022-12-05T00:39:46;3.10;99.90
76838;DHT22;65797;47.352;8.164;2022-12-05T00:42:12;3.10;99.90
76838;DHT22;65797;47.352;8.164;2022-12-05T00:44:38;3.10;1.00
76838;DHT22;65797;47.352;8.164;2022-12-05T00:47:03;3.10;1.00
76838;DHT22;65797;47.352;8.164;2022-12-05T00:49:29;3.00;1.00
76838;DHT22;65797;47.352;8.164;2022-12-05T00:51:55;3.00;1.00
76838;DHT22;65797;47.352;8.164;2022-12-05T00:54:20;3.10;1.00
76838;DHT22;65797;47.352;8.164;2022-12-05T00:56:46;3.10;1.00
76838;DHT22;65797;47.352;8.164;2022-12-05T00:59:15;3.00;1.00
76838;DHT22;65797;47.352;8.164;2022-12-05T01:01:42;3.10;1.00
76838;DHT22;65797;47.352;8.164;2022-12-05T01:04:15;3.10;1.00
76838;DHT22;65797;47.352;8.164;2022-12-05T01:06:42;3.10;1.00
76838;DHT22;65797;47.352;8.164;2022-12-05T01:09:09;3.10;1.00
76838;DHT22;65797;47.352;8.164;2022-12-05T01:11:35;3.10;1.00
76838;DHT22;65797;47.352;8.164;2022-12-05T01:14:01;3.10;1.00
76838;DHT22;65797;47.352;8.164;2022-12-05T01:16:31;3.10;1.00
76838;DHT22;65797;47.352;8.164;2022-12-05T01:18:59;3.20;1.00
76838;DHT22;65797;47.352;8.164;2022-12-05T01:21:25;3.10;1.00
76838;DHT22;65797;47.352;8.164;2022-12-05T01:23:51;3.10;1.00
76838;DHT22;65797;47.352;8.164;2022-12-05T01:26:19;3.10;1.00
76838;DHT22;65797;47.352;8.164;2022-12-05T01:28:45;3.20;1.00
76838;DHT22;65797;47.352;8.164;2022-12-05T01:31:24;3.20;1.00
76838;DHT22;65797;47.352;8.164;2022-12-05T01:33:51;3.10;1.00
76838;DHT22;65797;47.352;8.164;2022-12-05T01:36:17;3.10;1.00
76838;DHT22;65797;47.352;8.164;2022-12-05T01:38:43;3.10;1.00
76838;DHT22;65797;47.352;8.164;2022-12-05T01:41:14;3.10;1.00
76838;DHT22;65797;47.352;8.164;2022-12-05T01:44:03;3.10;1.00
76838;DHT22;65797;47.352;8.164;2022-12-05T01:46:32;3.10;1.00
76838;DHT22;65797;47.352;8.164;2022-12-05T01:49:20;3.10;1.00
76838;DHT22;65797;47.352;8.164;2022-12-05T01:52:15;3.10;1.00
76838;DHT22;65797;47.352;8.164;2022-12-05T01:54:43;3.20;1.00
76838;DHT22;65797;47.352;8.164;2022-12-05T01:57:10;3.20;1.00
76838;DHT22;65797;47.352;8.164;2022-12-05T01:59:40;3.20;1.00
76838;DHT22;65797;47.352;8.164;2022-12-05T02:02:07;3.20;1.00
76838;DHT22;65797;47.352;8.164;2022-12-05T02:04:40;3.20;1.00
76838;DHT22;65797;47.352;8.164;2022-12-05T02:07:08;3.20;1.00
76838;DHT22;65797;47.352;8.164;2022-12-05T02:09:34;3.20;1.00
76838;DHT22;65797;47.352;8.164;2022-12-05T02:12:02;3.20;1.00
76838;DHT22;65797;47.352;8.164;2022-12-05T02:14:54;3.20;1.00
76838;DHT22;65797;47.352;8.164;2022-12-05T02:17:35;3.20;1.00
76838;DHT22;65797;47.352;8.164;2022-12-05T02:20:12;3.20;1.00
76838;DHT22;65797;47.352;8.164;2022-12-05T02:36:48;3.20;1.00
76838;DHT22;65797;47.352;8.164;2022-12-05T02:39:43;3.20;1.00
76838;DHT22;65797;47.352;8.164;2022-12-05T02:44:56;3.10;1.00
76838;DHT22;65797;47.352;8.164;2022-12-05T02:47:27;3.10;1.00
76838;DHT22;65797;47.352;8.164;2022-12-05T02:49:55;3.10;1.00
76838;DHT22;65797;47.352;8.164;2022-12-05T02:52:22;3.10;1.00
76838;DHT22;65797;47.352;8.164;2022-12-05T02:54:50;3.10;1.00
76838;DHT22;65797;47.352;8.164;2022-12-05T02:57:17;3.10;1.00
76838;DHT22;65797;47.352;8.164;2022-12-05T02:59:43;3.10;1.00
76838;DHT22;65797;47.352;8.164;2022-12-05T03:02:24;3.10;1.00
76838;DHT22;65797;47.352;8.164;2022-12-05T03:04:51;3.10;1.00
76838;DHT22;65797;47.352;8.164;2022-12-05T03:07:19;3.10;1.00
76838;DHT22;65797;47.352;8.164;2022-12-05T03:09:55;3.10;1.00
76838;DHT22;65797;47.352;8.164;2022-12-05T03:12:27;3.10;1.00
76838;DHT22;65797;47.352;8.164;2022-12-05T03:15:04;3.20;1.00
76838;DHT22;65797;47.352;8.164;2022-12-05T03:17:35;3.10;1.00
76838;DHT22;65797;47.352;8.164;2022-12-05T03:20:10;3.20;1.00
76838;DHT22;65797;47.352;8.164;2022-12-05T03:22:57;3.20;1.00
76838;DHT22;65797;47.352;8.164;2022-12-05T03:25:32;3.10;1.00
76838;DHT22;65797;47.352;8.164;2022-12-05T03:28:24;3.20;1.00
76838;DHT22;65797;47.352;8.164;2022-12-05T03:30:54;3.20;1.00
76838;DHT22;65797;47.352;8.164;2022-12-05T03:33:28;3.10;1.00
76838;DHT22;65797;47.352;8.164;2022-12-05T03:36:03;3.10;1.00
76838;DHT22;65797;47.352;8.164;2022-12-05T03:38:50;3.10;1.00
76838;DHT22;65797;47.352;8.164;2022-12-05T03:41:38;3.20;1.00
76838;DHT22;65797;47.352;8.164;2022-12-05T03:45:14;3.20;1.00
76838;DHT22;65797;47.352;8.164;2022-12-05T03:47:37;3.20;1.00
76838;DHT22;65797;47.352;8.164;2022-12-05T03:50:13;3.20;1.00
76838;DHT22;65797;47.352;8.164;2022-12-05T03:52:52;3.20;1.00
76838;DHT22;65797;47.352;8.164;2022-12-05T03:55:18;3.20;1.00
76838;DHT22;65797;47.352;8.164;2022-12-05T03:57:56;3.20;1.00
76838;DHT22;65797;47.352;8.164;2022-12-05T04:00:23;3.20;1.00
76838;DHT22;65797;47.352;8.164;2022-12-05T04:03:14;3.20;1.00
76838;DHT22;65797;47.352;8.164;2022-12-05T04:05:58;3.20;1.00
76838;DHT22;65797;47.352;8.164;2022-12-05T04:08:28;3.20;1.00
76838;DHT22;65797;47.352;8.164;2022-12-05T04:11:01;3.20;1.00
76838;DHT22;65797;47.352;8.164;2022-12-05T04:13:46;3.20;1.00
76838;DHT22;65797;47.352;8.164;2022-12-05T04:17:00;3.20;1.00
76838;DHT22;65797;47.352;8.164;2022-12-05T04:22:30;3.20;1.00
76838;DHT22;65797;47.352;8.164;2022-12-05T04:24:57;3.30;1.00
76838;DHT22;65797;47.352;8.164;2022-12-05T04:28:03;3.20;1.00
76838;DHT22;65797;47.352;8.164;2022-12-05T04:30:42;3.20;1.00
76838;DHT22;65797;47.352;8.164;2022-12-05T04:33:26;3.20;1.00
76838;DHT22;65797;47.352;8.164;2022-12-05T04:36:04;3.20;1.00
76838;DHT22;65797;47.352;8.164;2022-12-05T04:38:49;3.20;1.00
76838;DHT22;65797;47.352;8.164;2022-12-05T04:41:21;3.20;1.00
76838;DHT22;65797;47.352;8.164;2022-12-05T04:43:49;3.10;1.00
76838;DHT22;65797;47.352;8.164;2022-12-05T04:46:18;3.10;1.00
76838;DHT22;65797;47.352;8.164;2022-12-05T04:48:49;3.10;1.00
76838;DHT22;65797;47.352;8.164;2022-12-05T04:51:19;3.10;1.00
76838;DHT22;65797;47.352;8.164;2022-12-05T04:53:49;3.10;1.00
76838;DHT22;65797;47.352;8.164;2022-12-05T04:56:19;3.10;1.00
76838;DHT22;65797;47.352;8.164;2022-12-05T04:58:46;3.20;1.00
76838;DHT22;65797;47.352;8.164;2022-12-05T05:01:26;3.20;1.00
76838;DHT22;65797;47.352;8.164;2022-12-05T05:04:05;3.10;1.00
76838;DHT22;65797;47.352;8.164;2022-12-05T05:06:31;3.10;1.00
76838;DHT22;65797;47.352;8.164;2022-12-05T05:08:57;3.10;1.00
76838;DHT22;65797;47.352;8.164;2022-12-05T05:11:29;3.20;1.00
76838;DHT22;65797;47.352;8.164;2022-12-05T05:13:55;3.20;1.00
76838;DHT22;65797;47.352;8.164;2022-12-05T05:16:34;3.20;1.00
76838;DHT22;65797;47.352;8.164;2022-12-05T05:19:00;3.10;1.00
76838;DHT22;65797;47.352;8.164;2022-12-05T05:21:29;3.00;1.00
76838;DHT22;65797;47.352;8.164;2022-12-05T05:23:56;3.00;1.00
76838;DHT22;65797;47.352;8.164;2022-12-05T05:26:23;3.00;1.00
76838;DHT22;65797;47.352;8.164;2022-12-05T05:28:49;3.10;1.00
76838;DHT22;65797;47.352;8.164;2022-12-05T05:31:16;3.10;1.00
76838;DHT22;65797;47.352;8.164;2022-12-05T05:33:42;3.20;1.00
76838;DHT22;65797;47.352;8.164;2022-12-05T05:36:11;3.20;1.00
76838;DHT22;65797;47.352;8.164;2022-12-05T05:38:39;3.20;1.00
76838;DHT22;65797;47.352;8.164;2022-12-05T05:41:05;3.30;1.00
76838;DHT22;65797;47.352;8.164;2022-12-05T05:43:31;3.30;1.00
76838;DHT22;65797;47.352;8.164;2022-12-05T05:45:57;3.30;1.00
76838;DHT22;65797;47.352;8.164;2022-12-05T05:48:22;3.30;1.00
76838;DHT22;65797;47.352;8.164;2022-12-05T05:50:48;3.30;1.00
76838;DHT22;65797;47.352;8.164;2022-12-05T05:53:14;3.30;1.00
76838;DHT22;65797;47.352;8.164;2022-12-05T05:55:40;3.40;1.00
76838;DHT22;65797;47.352;8.164;2022-12-05T05:58:07;3.40;1.00
76838;DHT22;65797;47.352;8.164;2022-12-05T06:00:32;3.50;1.00
76838;DHT22;65797;47.352;8.164;2022-12-05T06:02:58;3.40;1.00
76838;DHT22;65797;47.352;8.164;2022-12-05T06:05:24;3.40;1.00
76838;DHT22;65797;47.352;8.164;2022-12-05T06:07:51;3.40;1.00
76838;DHT22;65797;47.352;8.164;2022-12-05T06:10:17;3.40;1.00
76838;DHT22;65797;47.352;8.164;2022-12-05T06:12:43;3.40;1.00
76838;DHT22;65797;47.352;8.164;2022-12-05T06:15:09;3.40;1.00
76838;DHT22;65797;47.352;8.164;2022-12-05T06:17:35;3.40;1.00
76838;DHT22;65797;47.352;8.164;2022-12-05T06:20:01;3.40;1.00
76838;DHT22;65797;47.352;8.164;2022-12-05T06:22:28;3.40;1.00
76838;DHT22;65797;47.352;8.164;2022-12-05T06:24:54;3.40;1.00
76838;DHT22;65797;47.352;8.164;2022-12-05T06:27:20;3.40;1.00
76838;DHT22;65797;47.352;8.164;2022-12-05T06:29:45;3.30;1.00
76838;DHT22;65797;47.352;8.164;2022-12-05T06:32:11;3.40;1.00
76838;DHT22;65797;47.352;8.164;2022-12-05T06:34:37;3.30;1.00
76838;DHT22;65797;47.352;8.164;2022-12-05T06:37:02;3.40;1.00
76838;DHT22;65797;47.352;8.164;2022-12-05T06:39:28;3.40;1.00
76838;DHT22;65797;47.352;8.164;2022-12-05T06:41:54;3.40;1.00
76838;DHT22;65797;47.352;8.164;2022-12-05T06:44:20;3.40;1.00
76838;DHT22;65797;47.352;8.164;2022-12-05T06:46:47;3.40;1.00
76838;DHT22;65797;47.352;8.164;2022-12-05T06:49:13;3.40;1.00
76838;DHT22;65797;47.352;8.164;2022-12-05T06:51:39;3.40;1.00
76838;DHT22;65797;47.352;8.164;2022-12-05T06:54:05;3.40;1.00
76838;DHT22;65797;47.352;8.164;2022-12-05T06:56:30;3.40;1.00
76838;DHT22;65797;47.352;8.164;2022-12-05T06:58:56;3.40;1.00
76838;DHT22;65797;47.352;8.164;2022-12-05T07:01:23;3.40;1.00
76838;DHT22;65797;47.352;8.164;2022-12-05T07:04:09;3.50;1.00
76838;DHT22;65797;47.352;8.164;2022-12-05T07:06:34;3.40;1.00
76838;DHT22;65797;47.352;8.164;2022-12-05T07:09:00;3.40;1.00
76838;DHT22;65797;47.352;8.164;2022-12-05T07:11:26;3.40;1.00
76838;DHT22;65797;47.352;8.164;2022-12-05T07:13:52;3.50;1.00
76838;DHT22;65797;47.352;8.164;2022-12-05T07:16:18;3.40;1.00
76838;DHT22;65797;47.352;8.164;2022-12-05T07:18:43;3.50;1.00
76838;DHT22;65797;47.352;8.164;2022-12-05T07:21:13;3.40;1.00
76838;DHT22;65797;47.352;8.164;2022-12-05T07:23:41;3.50;1.00
76838;DHT22;65797;47.352;8.164;2022-12-05T07:26:09;3.50;1.00
76838;DHT22;65797;47.352;8.164;2022-12-05T07:28:35;3.50;1.00
76838;DHT22;65797;47.352;8.164;2022-12-05T07:31:06;3.50;1.00
76838;DHT22;65797;47.352;8.164;2022-12-05T07:33:32;3.50;1.00
76838;DHT22;65797;47.352;8.164;2022-12-05T07:36:03;3.50;1.00
76838;DHT22;65797;47.352;8.164;2022-12-05T07:38:29;3.50;1.00
76838;DHT22;65797;47.352;8.164;2022-12-05T07:40:55;3.50;1.00
76838;DHT22;65797;47.352;8.164;2022-12-05T07:43:21;3.60;1.00
76838;DHT22;65797;47.352;8.164;2022-12-05T07:45:47;3.60;1.00
76838;DHT22;65797;47.352;8.164;2022-12-05T07:48:12;3.60;1.00
76838;DHT22;65797;47.352;8.164;2022-12-05T07:50:38;3.60;1.00
76838;DHT22;65797;47.352;8.164;2022-12-05T07:53:04;3.60;1.00
76838;DHT22;65797;47.352;8.164;2022-12-05T07:55:29;3.60;1.00
76838;DHT22;65797;47.352;8.164;2022-12-05T07:57:55;3.60;1.00
76838;DHT22;65797;47.352;8.164;2022-12-05T08:00:21;3.60;1.00
76838;DHT22;65797;47.352;8.164;2022-12-05T08:02:47;3.60;1.00
76838;DHT22;65797;47.352;8.164;2022-12-05T08:05:13;3.60;1.00
76838;DHT22;65797;47.352;8.164;2022-12-05T08:07:40;3.60;1.00
76838;DHT22;65797;47.352;8.164;2022-12-05T08:10:06;3.60;1.00
76838;DHT22;65797;47.352;8.164;2022-12-05T08:12:33;3.60;1.00
76838;DHT22;65797;47.352;8.164;2022-12-05T08:14:59;3.60;1.00
76838;DHT22;65797;47.352;8.164;2022-12-05T08:17:24;3.60;1.00
76838;DHT22;65797;47.352;8.164;2022-12-05T08:19:51;3.60;1.00
76838;DHT22;65797;47.352;8.164;2022-12-05T08:22:16;3.70;1.00
76838;DHT22;65797;47.352;8.164;2022-12-05T08:24:42;3.70;1.00
76838;DHT22;65797;47.352;8.164;2022-12-05T08:27:08;3.70;1.00
76838;DHT22;65797;47.352;8.164;2022-12-05T08:29:33;3.70;1.00
76838;DHT22;65797;47.352;8.164;2022-12-05T08:31:59;3.80;1.00
76838;DHT22;65797;47.352;8.164;2022-12-05T08:34:25;3.80;1.00
76838;DHT22;65797;47.352;8.164;2022-12-05T08:36:50;3.80;1.00
76838;DHT22;65797;47.352;8.164;2022-12-05T08:39:18;3.80;1.00
76838;DHT22;65797;47.352;8.164;2022-12-05T08:41:45;3.80;1.00
76838;DHT22;65797;47.352;8.164;2022-12-05T08:44:12;3.80;1.00
76838;DHT22;65797;47.352;8.164;2022-12-05T08:46:42;3.80;1.00
76838;DHT22;65797;47.352;8.164;2022-12-05T08:49:10;3.80;1.00
76838;DHT22;65797;47.352;8.164;2022-12-05T08:51:36;3.80;1.00
76838;DHT22;65797;47.352;8.164;2022-12-05T08:54:03;3.90;1.00
76838;DHT22;65797;47.352;8.164;2022-12-05T08:56:28;3.90;1.00
76838;DHT22;65797;47.352;8.164;2022-12-05T08:58:55;3.90;1.00
76838;DHT22;65797;47.352;8.164;2022-12-05T09:01:21;3.90;1.00
76838;DHT22;65797;47.352;8.164;2022-12-05T09:03:47;3.90;1.00
76838;DHT22;65797;47.352;8.164;2022-12-05T09:06:21;4.00;1.00
76838;DHT22;65797;47.352;8.164;2022-12-05T09:08:48;4.00;1.00
76838;DHT22;65797;47.352;8.164;2022-12-05T09:11:19;4.00;1.00
76838;DHT22;65797;47.352;8.164;2022-12-05T09:13:46;4.10;1.00
76838;DHT22;65797;47.352;8.164;2022-12-05T09:16:20;4.10;1.00
76838;DHT22;65797;47.352;8.164;2022-12-05T09:18:47;4.10;1.00
76838;DHT22;65797;47.352;8.164;2022-12-05T09:21:16;4.00;1.00
76838;DHT22;65797;47.352;8.164;2022-12-05T09:23:42;4.10;1.00
76838;DHT22;65797;47.352;8.164;2022-12-05T09:26:14;4.10;1.00
76838;DHT22;65797;47.352;8.164;2022-12-05T09:28:41;4.20;1.00
76838;DHT22;65797;47.352;8.164;2022-12-05T09:31:13;4.20;1.00
76838;DHT22;65797;47.352;8.164;2022-12-05T09:33:39;4.20;1.00
76838;DHT22;65797;47.352;8.164;2022-12-05T09:36:07;4.20;1.00
76838;DHT22;65797;47.352;8.164;2022-12-05T09:38:33;4.20;1.00
76838;DHT22;65797;47.352;8.164;2022-12-05T09:41:22;4.30;1.00
76838;DHT22;65797;47.352;8.164;2022-12-05T09:44:21;4.30;1.00
76838;DHT22;65797;47.352;8.164;2022-12-05T09:46:58;4.20;1.00
76838;DHT22;65797;47.352;8.164;2022-12-05T09:49:26;4.30;1.00
76838;DHT22;65797;47.352;8.164;2022-12-05T09:51:53;4.30;1.00
76838;DHT22;65797;47.352;8.164;2022-12-05T09:54:20;4.30;1.00
76838;DHT22;65797;47.352;8.164;2022-12-05T09:56:49;4.40;1.00
76838;DHT22;65797;47.352;8.164;2022-12-05T09:59:16;4.40;1.00
76838;DHT22;65797;47.352;8.164;2022-12-05T10:15:35;4.50;1.00
76838;DHT22;65797;47.352;8.164;2022-12-05T10:18:09;4.60;1.00
76838;DHT22;65797;47.352;8.164;2022-12-05T10:21:02;4.70;1.00
76838;DHT22;65797;47.352;8.164;2022-12-05T10:23:38;4.70;1.00
76838;DHT22;65797;47.352;8.164;2022-12-05T10:26:10;4.70;1.00
76838;DHT22;65797;47.352;8.164;2022-12-05T10:31:09;4.80;1.00
76838;DHT22;65797;47.352;8.164;2022-12-05T10:33:40;4.80;1.00
76838;DHT22;65797;47.352;8.164;2022-12-05T10:36:14;4.80;1.00
76838;DHT22;65797;47.352;8.164;2022-12-05T10:38:42;4.80;1.00
76838;DHT22;65797;47.352;8.164;2022-12-05T10:41:12;4.90;1.00
76838;DHT22;65797;47.352;8.164;2022-12-05T10:43:42;4.90;1.00
76838;DHT22;65797;47.352;8.164;2022-12-05T10:46:09;5.00;1.00
76838;DHT22;65797;47.352;8.164;2022-12-05T10:48:37;5.00;1.00
76838;DHT22;65797;47.352;8.164;2022-12-05T10:51:04;5.10;1.00
76838;DHT22;65797;47.352;8.164;2022-12-05T10:53:44;5.10;1.00
76838;DHT22;65797;47.352;8.164;2022-12-05T10:56:46;5.20;1.00
76838;DHT22;65797;47.352;8.164;2022-12-05T10:59:17;5.20;1.00
76838;DHT22;65797;47.352;8.164;2022-12-05T11:01:47;5.30;1.00
76838;DHT22;65797;47.352;8.164;2022-12-05T11:06:58;5.30;1.00
76838;DHT22;65797;47.352;8.164;2022-12-05T11:09:35;5.30;1.00
76838;DHT22;65797;47.352;8.164;2022-12-05T11:12:18;5.20;1.00
76838;DHT22;65797;47.352;8.164;2022-12-05T11:15:01;5.30;1.00
76838;DHT22;65797;47.352;8.164;2022-12-05T11:17:34;5.40;1.00
76838;DHT22;65797;47.352;8.164;2022-12-05T11:20:02;5.40;1.00
76838;DHT22;65797;47.352;8.164;2022-12-05T11:22:33;5.50;99.90
76838;DHT22;65797;47.352;8.164;2022-12-05T11:27:49;5.60;99.90
76838;DHT22;65797;47.352;8.164;2022-12-05T11:30:22;5.60;99.90
76838;DHT22;65797;47.352;8.164;2022-12-05T11:32:49;5.60;99.90
76838;DHT22;65797;47.352;8.164;2022-12-05T11:35:24;5.60;99.90
76838;DHT22;65797;47.352;8.164;2022-12-05T11:38:01;5.60;99.90
76838;DHT22;65797;47.352;8.164;2022-12-05T11:54:48;6.00;99.90
76838;DHT22;65797;47.352;8.164;2022-12-05T12:00:26;6.40;1.00
76838;DHT22;65797;47.352;8.164;2022-12-05T12:06:18;6.20;38.60
76838;DHT22;65797;47.352;8.164;2022-12-05T12:08:52;6.10;1.00
76838;DHT22;65797;47.352;8.164;2022-12-05T12:12:01;6.20;99.90
76838;DHT22;65797;47.352;8.164;2022-12-05T12:17:15;6.10;1.00
76838;DHT22;65797;47.352;8.164;2022-12-05T12:22:25;6.20;99.90
76838;DHT22;65797;47.352;8.164;2022-12-05T12:26:14;6.40;99.90
76838;DHT22;65797;47.352;8.164;2022-12-05T12:28:30;6.40;1.00
76838;DHT22;65797;47.352;8.164;2022-12-05T12:36:31;6.40;1.00
76838;DHT22;65797;47.352;8.164;2022-12-05T12:39:15;6.50;1.00
76838;DHT22;65797;47.352;8.164;2022-12-05T12:50:29;6.60;99.90
76838;DHT22;65797;47.352;8.164;2022-12-05T12:58:46;6.40;99.90
76838;DHT22;65797;47.352;8.164;2022-12-05T13:04:53;6.40;99.90
76838;DHT22;65797;47.352;8.164;2022-12-05T13:07:42;6.50;1.00
76838;DHT22;65797;47.352;8.164;2022-12-05T13:10:32;6.40;1.00
76838;DHT22;65797;47.352;8.164;2022-12-05T13:13:02;6.40;1.00
76838;DHT22;65797;47.352;8.164;2022-12-05T13:15:44;6.40;1.00
76838;DHT22;65797;47.352;8.164;2022-12-05T13:18:21;6.40;1.00
76838;DHT22;65797;47.352;8.164;2022-12-05T13:20:55;6.50;90.50
76838;DHT22;65797;47.352;8.164;2022-12-05T13:23:24;6.50;1.00
76838;DHT22;65797;47.352;8.164;2022-12-05T13:25:52;6.70;1.00
76838;DHT22;65797;47.352;8.164;2022-12-05T13:30:57;7.70;1.00
76838;DHT22;65797;47.352;8.164;2022-12-05T13:33:44;8.10;99.90
76838;DHT22;65797;47.352;8.164;2022-12-05T13:36:12;8.60;99.90
76838;DHT22;65797;47.352;8.164;2022-12-05T13:39:23;9.10;5.10
76838;DHT22;65797;47.352;8.164;2022-12-05T13:42:22;8.70;1.00
76838;DHT22;65797;47.352;8.164;2022-12-05T13:45:04;8.50;1.00
76838;DHT22;65797;47.352;8.164;2022-12-05T13:47:59;8.30;1.00
76838;DHT22;65797;47.352;8.164;2022-12-05T13:53:47;8.20;1.00
76838;DHT22;65797;47.352;8.164;2022-12-05T13:58:58;8.40;1.00
76838;DHT22;65797;47.352;8.164;2022-12-05T14:09:01;8.30;99.90
76838;DHT22;65797;47.352;8.164;2022-12-05T14:11:27;8.30;99.90
76838;DHT22;65797;47.352;8.164;2022-12-05T14:13:53;8.40;1.00
76838;DHT22;65797;47.352;8.164;2022-12-05T14:21:44;8.10;99.90
76838;DHT22;65797;47.352;8.164;2022-12-05T14:30:04;7.80;99.90
76838;DHT22;65797;47.352;8.164;2022-12-05T14:32:40;7.60;99.90
76838;DHT22;65797;47.352;8.164;2022-12-05T14:35:29;7.60;99.90
76838;DHT22;65797;47.352;8.164;2022-12-05T14:37:58;7.40;1.00
76838;DHT22;65797;47.352;8.164;2022-12-05T14:40:34;7.40;1.00
76838;DHT22;65797;47.352;8.164;2022-12-05T14:50:52;7.00;1.00
76838;DHT22;65797;47.352;8.164;2022-12-05T14:53:35;6.90;1.00
76838;DHT22;65797;47.352;8.164;2022-12-05T14:56:15;6.80;1.00
76838;DHT22;65797;47.352;8.164;2022-12-05T15:01:25;6.60;1.00
76838;DHT22;65797;47.352;8.164;2022-12-05T15:04:05;6.60;1.00
76838;DHT22;65797;47.352;8.164;2022-12-05T15:06:35;6.40;1.00
76838;DHT22;65797;47.352;8.164;2022-12-05T15:09:06;6.30;1.00
76838;DHT22;65797;47.352;8.164;2022-12-05T15:11:35;6.20;1.00
76838;DHT22;65797;47.352;8.164;2022-12-05T15:14:15;6.20;1.00
76838;DHT22;65797;47.352;8.164;2022-12-05T15:16:45;6.10;1.00
76838;DHT22;65797;47.352;8.164;2022-12-05T15:19:26;6.00;36.00
76838;DHT22;65797;47.352;8.164;2022-12-05T15:21:56;6.00;99.90
76838;DHT22;65797;47.352;8.164;2022-12-05T15:24:23;6.00;66.00
76838;DHT22;65797;47.352;8.164;2022-12-05T15:26:56;5.90;99.90
76838;DHT22;65797;47.352;8.164;2022-12-05T15:29:25;5.90;99.90
76838;DHT22;65797;47.352;8.164;2022-12-05T15:31:56;5.80;99.90
76838;DHT22;65797;47.352;8.164;2022-12-05T15:37:09;5.70;99.90
76838;DHT22;65797;47.352;8.164;2022-12-05T15:39:57;5.70;99.90
76838;DHT22;65797;47.352;8.164;2022-12-05T15:44:50;5.60;99.90
76838;DHT22;65797;47.352;8.164;2022-12-05T15:47:21;5.50;99.90
76838;DHT22;65797;47.352;8.164;2022-12-05T15:49:49;5.40;99.90
76838;DHT22;65797;47.352;8.164;2022-12-05T15:52:29;5.30;99.90
76838;DHT22;65797;47.352;8.164;2022-12-05T15:54:59;5.10;99.90
76838;DHT22;65797;47.352;8.164;2022-12-05T15:57:36;5.10;1.00
76838;DHT22;65797;47.352;8.164;2022-12-05T16:00:06;5.00;99.90
76838;DHT22;65797;47.352;8.164;2022-12-05T16:03:03;4.90;1.00
76838;DHT22;65797;47.352;8.164;2022-12-05T16:05:39;4.90;1.00
76838;DHT22;65797;47.352;8.164;2022-12-05T16:08:06;4.80;1.00
76838;DHT22;65797;47.352;8.164;2022-12-05T16:10:33;4.80;1.00
76838;DHT22;65797;47.352;8.164;2022-12-05T16:13:05;4.60;1.00
76838;DHT22;65797;47.352;8.164;2022-12-05T16:15:32;4.60;1.00
76838;DHT22;65797;47.352;8.164;2022-12-05T16:18:00;4.50;1.00
76838;DHT22;65797;47.352;8.164;2022-12-05T16:20:30;4.50;1.00
76838;DHT22;65797;47.352;8.164;2022-12-05T16:23:18;4.40;1.00
76838;DHT22;65797;47.352;8.164;2022-12-05T16:25:47;4.40;1.00
76838;DHT22;65797;47.352;8.164;2022-12-05T16:28:17;4.30;1.00
76838;DHT22;65797;47.352;8.164;2022-12-05T16:30:57;4.30;1.00
76838;DHT22;65797;47.352;8.164;2022-12-05T16:33:25;4.20;1.00
76838;DHT22;65797;47.352;8.164;2022-12-05T16:35:51;4.10;1.00
76838;DHT22;65797;47.352;8.164;2022-12-05T16:38:23;4.10;1.00
76838;DHT22;65797;47.352;8.164;2022-12-05T16:40:56;4.10;1.00
76838;DHT22;65797;47.352;8.164;2022-12-05T16:45:52;3.90;1.00
76838;DHT22;65797;47.352;8.164;2022-12-05T16:48:29;3.90;97.70
76838;DHT22;65797;47.352;8.164;2022-12-05T16:53:44;3.70;1.00
76838;DHT22;65797;47.352;8.164;2022-12-05T16:56:18;3.60;99.90
76838;DHT22;65797;47.352;8.164;2022-12-05T16:58:44;3.60;1.00
76838;DHT22;65797;47.352;8.164;2022-12-05T17:01:25;3.70;1.00
76838;DHT22;65797;47.352;8.164;2022-12-05T17:03:55;3.70;99.90
76838;DHT22;65797;47.352;8.164;2022-12-05T17:06:22;3.60;99.90
76838;DHT22;65797;47.352;8.164;2022-12-05T17:08:50;3.60;99.90
76838;DHT22;65797;47.352;8.164;2022-12-05T17:13:44;3.50;99.90
76838;DHT22;65797;47.352;8.164;2022-12-05T17:16:13;3.40;99.90
76838;DHT22;65797;47.352;8.164;2022-12-05T17:18:39;3.40;99.90
76838;DHT22;65797;47.352;8.164;2022-12-05T17:21:05;3.30;99.90
76838;DHT22;65797;47.352;8.164;2022-12-05T17:23:30;3.30;99.90
76838;DHT22;65797;47.352;8.164;2022-12-05T17:25:57;3.20;1.00
76838;DHT22;65797;47.352;8.164;2022-12-05T17:28:24;3.20;96.70
76838;DHT22;65797;47.352;8.164;2022-12-05T17:30:50;3.10;57.20
76838;DHT22;65797;47.352;8.164;2022-12-05T17:33:18;3.10;1.00
76838;DHT22;65797;47.352;8.164;2022-12-05T17:35:44;3.00;54.10
76838;DHT22;65797;47.352;8.164;2022-12-05T17:38:10;3.00;1.00
76838;DHT22;65797;47.352;8.164;2022-12-05T17:40:37;2.90;1.00
76838;DHT22;65797;47.352;8.164;2022-12-05T17:43:04;2.90;88.60
76838;DHT22;65797;47.352;8.164;2022-12-05T17:45:29;2.90;99.90
76838;DHT22;65797;47.352;8.164;2022-12-05T17:47:55;2.80;99.90
76838;DHT22;65797;47.352;8.164;2022-12-05T17:50:22;2.70;10.60
76838;DHT22;65797;47.352;8.164;2022-12-05T17:52:50;2.70;1.00
76838;DHT22;65797;47.352;8.164;2022-12-05T17:55:25;2.70;99.90
76838;DHT22;65797;47.352;8.164;2022-12-05T17:57:51;2.60;62.60
76838;DHT22;65797;47.352;8.164;2022-12-05T18:00:18;2.50;1.00
76838;DHT22;65797;47.352;8.164;2022-12-05T18:02:44;2.40;95.40
76838;DHT22;65797;47.352;8.164;2022-12-05T18:05:12;2.40;99.90
76838;DHT22;65797;47.352;8.164;2022-12-05T18:07:39;2.40;99.90
76838;DHT22;65797;47.352;8.164;2022-12-05T18:10:07;2.40;99.90
76838;DHT22;65797;47.352;8.164;2022-12-05T18:12:33;2.40;99.90
76838;DHT22;65797;47.352;8.164;2022-12-05T18:14:59;2.40;99.90
76838;DHT22;65797;47.352;8.164;2022-12-05T18:17:25;2.30;99.90
76838;DHT22;65797;47.352;8.164;2022-12-05T18:19:52;2.20;1.00
76838;DHT22;65797;47.352;8.164;2022-12-05T18:22:21;2.20;99.90
76838;DHT22;65797;47.352;8.164;2022-12-05T18:24:47;2.20;1.00
76838;DHT22;65797;47.352;8.164;2022-12-05T18:27:12;2.20;1.00
76838;DHT22;65797;47.352;8.164;2022-12-05T18:29:38;2.20;1.00
76838;DHT22;65797;47.352;8.164;2022-12-05T18:32:04;2.20;1.00
76838;DHT22;65797;47.352;8.164;2022-12-05T18:34:29;2.20;61.90
76838;DHT22;65797;47.352;8.164;2022-12-05T18:36:55;2.20;1.00
76838;DHT22;65797;47.352;8.164;2022-12-05T18:39:21;2.20;1.00
76838;DHT22;65797;47.352;8.164;2022-12-05T18:41:46;2.20;2.90
76838;DHT22;65797;47.352;8.164;2022-12-05T18:44:12;2.20;99.90